sensor_id;sensor_type;location;lat;lon;timestamp;P1;durP1;ratioP1;P2;durP2;ratioP2
26989;SDS011;14537;47.788;11.858;2023-02-12T00:00:21;14.35;;;5.50;;
26989;SDS011;14537;47.788;11.858;2023-02-12T00:02:47;16.77;;;6.57;;
26989;SDS011;14537;47.788;11.858;2023-02-12T00:05:13;11.57;;;4.72;;
26989;SDS011;14537;47.788;11.858;2023-02-12T00:07:40;15.60;;;6.55;;
26989;SDS011;14537;47.788;11.858;2023-02-12T00:10:06;18.10;;;5.93;;
26989;SDS011;14537;47.788;11.858;2023-02-12T00:12:33;17.42;;;6.72;;
26989;SDS011;14537;47.788;11.858;2023-02-12T00:14:59;16.50;;;6.72;;
26989;SDS011;14537;47.788;11.858;2023-02-12T00:17:24;13.40;;;6.00;;
26989;SDS011;14537;47.788;11.858;2023-02-12T00:19:50;15.23;;;6.05;;
26989;SDS011;14537;47.788;11.858;2023-02-12T00:22:15;15.90;;;6.45;;
26989;SDS011;14537;47.788;11.858;2023-02-12T00:24:41;15.82;;;5.90;;
26989;SDS011;14537;47.788;11.858;2023-02-12T00:27:06;14.68;;;6.25;;
26989;SDS011;14537;47.788;11.858;2023-02-12T00:29:32;19.65;;;5.93;;
26989;SDS011;14537;47.788;11.858;2023-02-12T00:31:58;12.52;;;5.80;;
26989;SDS011;14537;47.788;11.858;2023-02-12T00:34:23;14.68;;;5.30;;
26989;SDS011;14537;47.788;11.858;2023-02-12T00:36:49;14.35;;;6.07;;
26989;SDS011;14537;47.788;11.858;2023-02-12T00:39:15;15.88;;;5.47;;
26989;SDS011;14537;47.788;11.858;2023-02-12T00:41:40;11.98;;;5.20;;
26989;SDS011;14537;47.788;11.858;2023-02-12T00:44:06;12.45;;;5.13;;
26989;SDS011;14537;47.788;11.858;2023-02-12T00:46:31;10.00;;;4.00;;
26989;SDS011;14537;47.788;11.858;2023-02-12T00:48:57;7.13;;;3.40;;
26989;SDS011;14537;47.788;11.858;2023-02-12T00:51:23;8.18;;;3.08;;
26989;SDS011;14537;47.788;11.858;2023-02-12T00:53:48;7.32;;;3.33;;
26989;SDS011;14537;47.788;11.858;2023-02-12T00:56:14;9.70;;;3.33;;
26989;SDS011;14537;47.788;11.858;2023-02-12T00:58:40;10.73;;;3.60;;
26989;SDS011;14537;47.788;11.858;2023-02-12T01:01:06;9.27;;;3.70;;
26989;SDS011;14537;47.788;11.858;2023-02-12T01:03:31;8.65;;;3.35;;
26989;SDS011;14537;47.788;11.858;2023-02-12T01:05:57;11.20;;;4.47;;
26989;SDS011;14537;47.788;11.858;2023-02-12T01:08:23;10.50;;;4.30;;
26989;SDS011;14537;47.788;11.858;2023-02-12T01:11:00;12.23;;;4.82;;
26989;SDS011;14537;47.788;11.858;2023-02-12T01:13:27;16.05;;;5.45;;
26989;SDS011;14537;47.788;11.858;2023-02-12T01:18:50;8.13;;;3.85;;
26989;SDS011;14537;47.788;11.858;2023-02-12T01:21:22;10.90;;;4.07;;
26989;SDS011;14537;47.788;11.858;2023-02-12T01:23:50;11.77;;;3.78;;
26989;SDS011;14537;47.788;11.858;2023-02-12T01:26:27;8.50;;;3.80;;
26989;SDS011;14537;47.788;11.858;2023-02-12T01:28:58;8.70;;;3.97;;
26989;SDS011;14537;47.788;11.858;2023-02-12T01:31:26;8.50;;;3.45;;
26989;SDS011;14537;47.788;11.858;2023-02-12T01:33:54;8.65;;;3.38;;
26989;SDS011;14537;47.788;11.858;2023-02-12T01:36:21;7.15;;;3.35;;
26989;SDS011;14537;47.788;11.858;2023-02-12T01:38:47;8.50;;;3.53;;
26989;SDS011;14537;47.788;11.858;2023-02-12T01:41:15;7.28;;;3.15;;
26989;SDS011;14537;47.788;11.858;2023-02-12T01:44:02;9.38;;;3.72;;
26989;SDS011;14537;47.788;11.858;2023-02-12T01:46:29;8.73;;;3.85;;
26989;SDS011;14537;47.788;11.858;2023-02-12T01:48:55;7.20;;;3.80;;
26989;SDS011;14537;47.788;11.858;2023-02-12T01:51:21;14.32;;;4.22;;
26989;SDS011;14537;47.788;11.858;2023-02-12T01:53:49;8.68;;;3.63;;
26989;SDS011;14537;47.788;11.858;2023-02-12T01:56:18;9.55;;;4.00;;
26989;SDS011;14537;47.788;11.858;2023-02-12T01:58:44;9.02;;;3.53;;
26989;SDS011;14537;47.788;11.858;2023-02-12T02:01:14;7.35;;;3.35;;
26989;SDS011;14537;47.788;11.858;2023-02-12T02:03:44;7.80;;;3.55;;
26989;SDS011;14537;47.788;11.858;2023-02-12T02:06:19;6.68;;;3.67;;
26989;SDS011;14537;47.788;11.858;2023-02-12T02:08:49;7.35;;;3.80;;
26989;SDS011;14537;47.788;11.858;2023-02-12T02:11:15;13.05;;;4.53;;
26989;SDS011;14537;47.788;11.858;2023-02-12T02:13:59;12.00;;;4.03;;
26989;SDS011;14537;47.788;11.858;2023-02-12T02:16:56;9.90;;;4.85;;
26989;SDS011;14537;47.788;11.858;2023-02-12T02:32:53;28.10;;;9.02;;
26989;SDS011;14537;47.788;11.858;2023-02-12T02:35:31;27.85;;;8.57;;
26989;SDS011;14537;47.788;11.858;2023-02-12T02:40:52;9.95;;;4.38;;
26989;SDS011;14537;47.788;11.858;2023-02-12T02:43:27;9.38;;;4.47;;
26989;SDS011;14537;47.788;11.858;2023-02-12T02:46:40;11.63;;;4.60;;
26989;SDS011;14537;47.788;11.858;2023-02-12T02:48:52;11.50;;;5.10;;
26989;SDS011;14537;47.788;11.858;2023-02-12T02:51:23;15.70;;;4.97;;
26989;SDS011;14537;47.788;11.858;2023-02-12T02:53:55;14.20;;;4.07;;
26989;SDS011;14537;47.788;11.858;2023-02-12T02:56:38;10.82;;;4.32;;
26989;SDS011;14537;47.788;11.858;2023-02-12T02:59:09;10.82;;;4.10;;
26989;SDS011;14537;47.788;11.858;2023-02-12T03:01:46;12.57;;;4.90;;
26989;SDS011;14537;47.788;11.858;2023-02-12T03:04:32;11.88;;;4.55;;
26989;SDS011;14537;47.788;11.858;2023-02-12T03:07:08;9.43;;;4.35;;
26989;SDS011;14537;47.788;11.858;2023-02-12T03:09:41;13.73;;;5.15;;
26989;SDS011;14537;47.788;11.858;2023-02-12T03:12:17;20.08;;;5.35;;
26989;SDS011;14537;47.788;11.858;2023-02-12T03:14:52;17.42;;;4.68;;
26989;SDS011;14537;47.788;11.858;2023-02-12T03:17:26;12.38;;;3.72;;
26989;SDS011;14537;47.788;11.858;2023-02-12T03:20:01;11.52;;;4.47;;
26989;SDS011;14537;47.788;11.858;2023-02-12T03:22:38;13.25;;;4.03;;
26989;SDS011;14537;47.788;11.858;2023-02-12T03:25:10;14.02;;;5.07;;
26989;SDS011;14537;47.788;11.858;2023-02-12T03:27:43;10.85;;;4.60;;
26989;SDS011;14537;47.788;11.858;2023-02-12T03:30:13;11.40;;;3.78;;
26989;SDS011;14537;47.788;11.858;2023-02-12T03:35:24;12.93;;;4.55;;
26989;SDS011;14537;47.788;11.858;2023-02-12T03:38:17;14.02;;;5.55;;
26989;SDS011;14537;47.788;11.858;2023-02-12T03:41:05;14.95;;;5.38;;
26989;SDS011;14537;47.788;11.858;2023-02-12T03:43:58;11.75;;;4.30;;
26989;SDS011;14537;47.788;11.858;2023-02-12T03:49:04;6.32;;;3.00;;
26989;SDS011;14537;47.788;11.858;2023-02-12T03:54:05;9.02;;;4.25;;
26989;SDS011;14537;47.788;11.858;2023-02-12T03:56:37;12.70;;;4.83;;
26989;SDS011;14537;47.788;11.858;2023-02-12T03:59:08;12.30;;;4.57;;
26989;SDS011;14537;47.788;11.858;2023-02-12T04:01:34;15.68;;;4.10;;
26989;SDS011;14537;47.788;11.858;2023-02-12T04:04:05;11.73;;;4.60;;
26989;SDS011;14537;47.788;11.858;2023-02-12T04:06:32;14.60;;;5.43;;
26989;SDS011;14537;47.788;11.858;2023-02-12T04:09:00;14.38;;;5.28;;
26989;SDS011;14537;47.788;11.858;2023-02-12T04:11:33;9.90;;;4.03;;
26989;SDS011;14537;47.788;11.858;2023-02-12T04:19:12;8.95;;;4.18;;
26989;SDS011;14537;47.788;11.858;2023-02-12T04:22:25;16.98;;;5.32;;
26989;SDS011;14537;47.788;11.858;2023-02-12T04:27:47;12.35;;;4.40;;
26989;SDS011;14537;47.788;11.858;2023-02-12T04:30:24;10.13;;;4.30;;
26989;SDS011;14537;47.788;11.858;2023-02-12T04:33:16;11.63;;;4.28;;
26989;SDS011;14537;47.788;11.858;2023-02-12T04:40:50;9.40;;;3.83;;
26989;SDS011;14537;47.788;11.858;2023-02-12T04:43:30;13.65;;;4.88;;
26989;SDS011;14537;47.788;11.858;2023-02-12T04:45:58;13.23;;;3.78;;
26989;SDS011;14537;47.788;11.858;2023-02-12T04:48:24;12.05;;;4.60;;
26989;SDS011;14537;47.788;11.858;2023-02-12T04:50:50;13.27;;;4.60;;
26989;SDS011;14537;47.788;11.858;2023-02-12T04:53:16;10.25;;;4.28;;
26989;SDS011;14537;47.788;11.858;2023-02-12T04:55:41;10.77;;;4.20;;
26989;SDS011;14537;47.788;11.858;2023-02-12T04:58:07;11.52;;;4.15;;
26989;SDS011;14537;47.788;11.858;2023-02-12T05:00:33;11.38;;;4.32;;
26989;SDS011;14537;47.788;11.858;2023-02-12T05:02:58;14.85;;;4.45;;
26989;SDS011;14537;47.788;11.858;2023-02-12T05:05:24;9.40;;;3.30;;
26989;SDS011;14537;47.788;11.858;2023-02-12T05:07:50;6.68;;;3.38;;
26989;SDS011;14537;47.788;11.858;2023-02-12T05:10:16;7.95;;;3.72;;
26989;SDS011;14537;47.788;11.858;2023-02-12T05:12:42;17.52;;;4.85;;
26989;SDS011;14537;47.788;11.858;2023-02-12T05:15:08;11.13;;;4.30;;
26989;SDS011;14537;47.788;11.858;2023-02-12T05:17:34;8.25;;;3.80;;
26989;SDS011;14537;47.788;11.858;2023-02-12T05:20:00;9.02;;;4.05;;
26989;SDS011;14537;47.788;11.858;2023-02-12T05:22:25;8.48;;;4.00;;
26989;SDS011;14537;47.788;11.858;2023-02-12T05:24:51;10.13;;;3.88;;
26989;SDS011;14537;47.788;11.858;2023-02-12T05:27:17;11.55;;;4.47;;
26989;SDS011;14537;47.788;11.858;2023-02-12T05:29:42;12.15;;;4.50;;
26989;SDS011;14537;47.788;11.858;2023-02-12T05:32:08;8.75;;;3.97;;
26989;SDS011;14537;47.788;11.858;2023-02-12T05:34:33;10.68;;;4.18;;
26989;SDS011;14537;47.788;11.858;2023-02-12T05:36:59;8.15;;;3.25;;
26989;SDS011;14537;47.788;11.858;2023-02-12T05:39:25;8.13;;;3.65;;
26989;SDS011;14537;47.788;11.858;2023-02-12T05:41:50;11.45;;;4.68;;
26989;SDS011;14537;47.788;11.858;2023-02-12T05:44:16;11.25;;;4.47;;
26989;SDS011;14537;47.788;11.858;2023-02-12T05:46:42;8.95;;;3.70;;
26989;SDS011;14537;47.788;11.858;2023-02-12T05:49:08;14.05;;;3.50;;
26989;SDS011;14537;47.788;11.858;2023-02-12T05:51:34;10.68;;;4.38;;
26989;SDS011;14537;47.788;11.858;2023-02-12T05:54:01;9.55;;;4.18;;
26989;SDS011;14537;47.788;11.858;2023-02-12T05:56:40;10.57;;;4.35;;
26989;SDS011;14537;47.788;11.858;2023-02-12T05:59:11;30.20;;;10.35;;
26989;SDS011;14537;47.788;11.858;2023-02-12T06:01:41;19.95;;;7.20;;
26989;SDS011;14537;47.788;11.858;2023-02-12T06:04:09;18.70;;;6.35;;
26989;SDS011;14537;47.788;11.858;2023-02-12T06:09:13;12.65;;;4.55;;
26989;SDS011;14537;47.788;11.858;2023-02-12T06:11:39;9.38;;;3.92;;
26989;SDS011;14537;47.788;11.858;2023-02-12T06:14:06;9.10;;;4.50;;
26989;SDS011;14537;47.788;11.858;2023-02-12T06:16:34;10.60;;;4.03;;
26989;SDS011;14537;47.788;11.858;2023-02-12T06:19:00;10.07;;;4.00;;
26989;SDS011;14537;47.788;11.858;2023-02-12T06:21:27;10.50;;;4.32;;
26989;SDS011;14537;47.788;11.858;2023-02-12T06:23:53;14.95;;;5.35;;
26989;SDS011;14537;47.788;11.858;2023-02-12T06:26:19;10.98;;;4.88;;
26989;SDS011;14537;47.788;11.858;2023-02-12T06:28:46;11.93;;;4.80;;
26989;SDS011;14537;47.788;11.858;2023-02-12T06:31:22;13.63;;;4.70;;
26989;SDS011;14537;47.788;11.858;2023-02-12T06:33:48;13.73;;;4.97;;
26989;SDS011;14537;47.788;11.858;2023-02-12T06:36:14;12.50;;;4.05;;
26989;SDS011;14537;47.788;11.858;2023-02-12T06:38:41;15.90;;;4.65;;
26989;SDS011;14537;47.788;11.858;2023-02-12T06:41:06;10.60;;;4.68;;
26989;SDS011;14537;47.788;11.858;2023-02-12T06:43:32;9.82;;;4.25;;
26989;SDS011;14537;47.788;11.858;2023-02-12T06:46:01;13.35;;;4.82;;
26989;SDS011;14537;47.788;11.858;2023-02-12T06:48:27;15.15;;;5.05;;
26989;SDS011;14537;47.788;11.858;2023-02-12T06:50:53;10.13;;;4.40;;
26989;SDS011;14537;47.788;11.858;2023-02-12T06:53:19;14.40;;;5.03;;
26989;SDS011;14537;47.788;11.858;2023-02-12T06:55:45;10.48;;;4.68;;
26989;SDS011;14537;47.788;11.858;2023-02-12T06:58:10;8.70;;;3.97;;
26989;SDS011;14537;47.788;11.858;2023-02-12T07:00:36;11.98;;;4.95;;
26989;SDS011;14537;47.788;11.858;2023-02-12T07:03:01;12.68;;;4.90;;
26989;SDS011;14537;47.788;11.858;2023-02-12T07:05:27;11.80;;;4.78;;
26989;SDS011;14537;47.788;11.858;2023-02-12T07:07:53;12.52;;;4.72;;
26989;SDS011;14537;47.788;11.858;2023-02-12T07:10:18;10.80;;;4.20;;
26989;SDS011;14537;47.788;11.858;2023-02-12T07:12:44;11.32;;;4.97;;
26989;SDS011;14537;47.788;11.858;2023-02-12T07:15:10;13.15;;;5.50;;
26989;SDS011;14537;47.788;11.858;2023-02-12T07:17:36;12.57;;;4.75;;
26989;SDS011;14537;47.788;11.858;2023-02-12T07:20:02;10.60;;;4.85;;
26989;SDS011;14537;47.788;11.858;2023-02-12T07:22:29;10.85;;;4.70;;
26989;SDS011;14537;47.788;11.858;2023-02-12T07:24:54;9.57;;;4.18;;
26989;SDS011;14537;47.788;11.858;2023-02-12T07:27:20;15.07;;;5.30;;
26989;SDS011;14537;47.788;11.858;2023-02-12T07:29:46;13.40;;;6.07;;
26989;SDS011;14537;47.788;11.858;2023-02-12T07:32:11;15.57;;;5.57;;
26989;SDS011;14537;47.788;11.858;2023-02-12T07:34:37;19.17;;;6.30;;
26989;SDS011;14537;47.788;11.858;2023-02-12T07:37:02;12.52;;;4.88;;
26989;SDS011;14537;47.788;11.858;2023-02-12T07:39:28;14.88;;;5.32;;
26989;SDS011;14537;47.788;11.858;2023-02-12T07:41:54;9.02;;;4.05;;
26989;SDS011;14537;47.788;11.858;2023-02-12T07:44:20;11.85;;;5.03;;
26989;SDS011;14537;47.788;11.858;2023-02-12T07:46:47;17.15;;;6.25;;
26989;SDS011;14537;47.788;11.858;2023-02-12T07:49:17;20.05;;;7.45;;
26989;SDS011;14537;47.788;11.858;2023-02-12T07:51:44;18.83;;;6.93;;
26989;SDS011;14537;47.788;11.858;2023-02-12T07:54:10;17.73;;;7.07;;
26989;SDS011;14537;47.788;11.858;2023-02-12T07:56:37;18.45;;;7.47;;
26989;SDS011;14537;47.788;11.858;2023-02-12T07:59:05;28.33;;;8.95;;
26989;SDS011;14537;47.788;11.858;2023-02-12T08:01:36;15.40;;;7.05;;
26989;SDS011;14537;47.788;11.858;2023-02-12T08:04:04;15.00;;;6.60;;
26989;SDS011;14537;47.788;11.858;2023-02-12T08:06:32;17.15;;;7.15;;
26989;SDS011;14537;47.788;11.858;2023-02-12T08:09:02;16.42;;;7.35;;
26989;SDS011;14537;47.788;11.858;2023-02-12T08:11:29;16.73;;;6.55;;
26989;SDS011;14537;47.788;11.858;2023-02-12T08:13:56;16.45;;;6.85;;
26989;SDS011;14537;47.788;11.858;2023-02-12T08:16:23;16.10;;;6.40;;
26989;SDS011;14537;47.788;11.858;2023-02-12T08:18:50;13.02;;;5.38;;
26989;SDS011;14537;47.788;11.858;2023-02-12T08:21:18;16.30;;;6.60;;
26989;SDS011;14537;47.788;11.858;2023-02-12T08:23:47;15.15;;;6.15;;
26989;SDS011;14537;47.788;11.858;2023-02-12T08:28:41;17.63;;;7.10;;
26989;SDS011;14537;47.788;11.858;2023-02-12T08:31:19;16.83;;;6.03;;
26989;SDS011;14537;47.788;11.858;2023-02-12T08:33:47;20.10;;;7.72;;
26989;SDS011;14537;47.788;11.858;2023-02-12T08:36:15;16.95;;;6.60;;
26989;SDS011;14537;47.788;11.858;2023-02-12T08:38:42;14.15;;;6.07;;
26989;SDS011;14537;47.788;11.858;2023-02-12T08:41:10;18.65;;;7.93;;
26989;SDS011;14537;47.788;11.858;2023-02-12T08:43:38;18.92;;;7.35;;
26989;SDS011;14537;47.788;11.858;2023-02-12T08:46:06;17.77;;;7.20;;
26989;SDS011;14537;47.788;11.858;2023-02-12T08:48:36;19.83;;;6.20;;
26989;SDS011;14537;47.788;11.858;2023-02-12T08:51:07;16.48;;;6.35;;
26989;SDS011;14537;47.788;11.858;2023-02-12T08:53:35;17.40;;;7.05;;
26989;SDS011;14537;47.788;11.858;2023-02-12T08:56:01;16.15;;;6.35;;
26989;SDS011;14537;47.788;11.858;2023-02-12T08:58:27;16.58;;;7.15;;
26989;SDS011;14537;47.788;11.858;2023-02-12T09:00:53;15.52;;;6.18;;
26989;SDS011;14537;47.788;11.858;2023-02-12T09:03:19;18.92;;;6.88;;
26989;SDS011;14537;47.788;11.858;2023-02-12T09:05:44;14.88;;;6.30;;
26989;SDS011;14537;47.788;11.858;2023-02-12T09:08:10;16.60;;;6.35;;
26989;SDS011;14537;47.788;11.858;2023-02-12T09:10:39;17.20;;;6.70;;
26989;SDS011;14537;47.788;11.858;2023-02-12T09:13:06;18.35;;;6.68;;
26989;SDS011;14537;47.788;11.858;2023-02-12T09:15:50;17.30;;;6.15;;
26989;SDS011;14537;47.788;11.858;2023-02-12T09:18:16;17.75;;;7.13;;
26989;SDS011;14537;47.788;11.858;2023-02-12T09:20:42;25.08;;;8.95;;
26989;SDS011;14537;47.788;11.858;2023-02-12T09:23:12;19.77;;;8.45;;
26989;SDS011;14537;47.788;11.858;2023-02-12T09:25:42;18.42;;;7.88;;
26989;SDS011;14537;47.788;11.858;2023-02-12T09:30:35;21.92;;;7.95;;
26989;SDS011;14537;47.788;11.858;2023-02-12T09:33:02;23.42;;;8.00;;
26989;SDS011;14537;47.788;11.858;2023-02-12T09:35:29;16.83;;;6.97;;
26989;SDS011;14537;47.788;11.858;2023-02-12T09:37:55;22.42;;;8.32;;
26989;SDS011;14537;47.788;11.858;2023-02-12T09:40:26;19.13;;;7.13;;
26989;SDS011;14537;47.788;11.858;2023-02-12T09:43:10;21.98;;;7.03;;
26989;SDS011;14537;47.788;11.858;2023-02-12T09:45:54;18.02;;;7.13;;
26989;SDS011;14537;47.788;11.858;2023-02-12T09:51:17;22.13;;;8.50;;
26989;SDS011;14537;47.788;11.858;2023-02-12T09:53:44;20.88;;;7.95;;
26989;SDS011;14537;47.788;11.858;2023-02-12T09:56:12;17.73;;;7.68;;
26989;SDS011;14537;47.788;11.858;2023-02-12T09:58:54;29.00;;;9.38;;
26989;SDS011;14537;47.788;11.858;2023-02-12T10:01:25;25.48;;;9.13;;
26989;SDS011;14537;47.788;11.858;2023-02-12T10:03:52;21.98;;;9.23;;
26989;SDS011;14537;47.788;11.858;2023-02-12T10:06:19;24.80;;;8.85;;
26989;SDS011;14537;47.788;11.858;2023-02-12T10:11:53;25.58;;;9.65;;
26989;SDS011;14537;47.788;11.858;2023-02-12T10:23:10;27.40;;;9.10;;
26989;SDS011;14537;47.788;11.858;2023-02-12T10:25:49;28.77;;;9.57;;
26989;SDS011;14537;47.788;11.858;2023-02-12T10:28:27;27.95;;;8.82;;
26989;SDS011;14537;47.788;11.858;2023-02-12T10:33:30;24.48;;;9.52;;
26989;SDS011;14537;47.788;11.858;2023-02-12T10:36:13;23.17;;;9.07;;
26989;SDS011;14537;47.788;11.858;2023-02-12T10:38:57;22.73;;;9.07;;
26989;SDS011;14537;47.788;11.858;2023-02-12T10:41:26;26.23;;;9.70;;
26989;SDS011;14537;47.788;11.858;2023-02-12T10:43:56;23.85;;;8.05;;
26989;SDS011;14537;47.788;11.858;2023-02-12T10:46:21;26.02;;;10.30;;
26989;SDS011;14537;47.788;11.858;2023-02-12T10:48:48;25.70;;;9.50;;
26989;SDS011;14537;47.788;11.858;2023-02-12T10:57:18;24.58;;;9.10;;
26989;SDS011;14537;47.788;11.858;2023-02-12T10:59:49;27.02;;;10.00;;
26989;SDS011;14537;47.788;11.858;2023-02-12T11:04:42;23.45;;;9.82;;
26989;SDS011;14537;47.788;11.858;2023-02-12T11:07:08;22.23;;;9.65;;
26989;SDS011;14537;47.788;11.858;2023-02-12T11:09:35;25.95;;;9.98;;
26989;SDS011;14537;47.788;11.858;2023-02-12T11:15:21;23.55;;;9.05;;
26989;SDS011;14537;47.788;11.858;2023-02-12T11:17:59;22.40;;;8.52;;
26989;SDS011;14537;47.788;11.858;2023-02-12T11:23:03;23.25;;;9.57;;
26989;SDS011;14537;47.788;11.858;2023-02-12T11:25:35;23.80;;;10.00;;
26989;SDS011;14537;47.788;11.858;2023-02-12T11:31:00;21.23;;;8.35;;
26989;SDS011;14537;47.788;11.858;2023-02-12T11:38:32;22.17;;;7.97;;
26989;SDS011;14537;47.788;11.858;2023-02-12T11:41:08;20.65;;;8.07;;
26989;SDS011;14537;47.788;11.858;2023-02-12T11:44:12;16.45;;;7.38;;
26989;SDS011;14537;47.788;11.858;2023-02-12T11:46:48;19.83;;;8.02;;
26989;SDS011;14537;47.788;11.858;2023-02-12T11:49:19;19.02;;;7.80;;
26989;SDS011;14537;47.788;11.858;2023-02-12T11:51:48;18.40;;;7.10;;
26989;SDS011;14537;47.788;11.858;2023-02-12T11:54:17;21.70;;;8.52;;
26989;SDS011;14537;47.788;11.858;2023-02-12T11:56:47;15.55;;;7.20;;
26989;SDS011;14537;47.788;11.858;2023-02-12T11:59:55;17.55;;;7.72;;
26989;SDS011;14537;47.788;11.858;2023-02-12T12:02:23;23.85;;;8.27;;
26989;SDS011;14537;47.788;11.858;2023-02-12T12:07:28;18.77;;;7.90;;
26989;SDS011;14537;47.788;11.858;2023-02-12T12:10:03;22.13;;;8.57;;
26989;SDS011;14537;47.788;11.858;2023-02-12T12:12:50;17.05;;;7.72;;
26989;SDS011;14537;47.788;11.858;2023-02-12T12:15:30;19.08;;;8.60;;
26989;SDS011;14537;47.788;11.858;2023-02-12T12:21:08;23.17;;;8.88;;
26989;SDS011;14537;47.788;11.858;2023-02-12T12:24:30;21.23;;;8.10;;
26989;SDS011;14537;47.788;11.858;2023-02-12T12:26:55;15.70;;;6.85;;
26989;SDS011;14537;47.788;11.858;2023-02-12T12:32:12;21.92;;;8.75;;
26989;SDS011;14537;47.788;11.858;2023-02-12T12:34:40;25.17;;;9.60;;
26989;SDS011;14537;47.788;11.858;2023-02-12T12:53:17;19.20;;;8.13;;
26989;SDS011;14537;47.788;11.858;2023-02-12T13:04:49;23.92;;;8.57;;
26989;SDS011;14537;47.788;11.858;2023-02-12T13:13:03;19.65;;;7.65;;
26989;SDS011;14537;47.788;11.858;2023-02-12T13:15:43;18.02;;;7.95;;
26989;SDS011;14537;47.788;11.858;2023-02-12T13:18:21;17.90;;;7.80;;
26989;SDS011;14537;47.788;11.858;2023-02-12T13:29:51;17.60;;;7.35;;
26989;SDS011;14537;47.788;11.858;2023-02-12T13:37:21;21.30;;;7.82;;
26989;SDS011;14537;47.788;11.858;2023-02-12T13:40:00;18.92;;;7.97;;
26989;SDS011;14537;47.788;11.858;2023-02-12T13:48:33;18.48;;;7.22;;
26989;SDS011;14537;47.788;11.858;2023-02-12T13:56:45;17.27;;;7.20;;
26989;SDS011;14537;47.788;11.858;2023-02-12T14:01:56;20.27;;;8.02;;
26989;SDS011;14537;47.788;11.858;2023-02-12T14:04:31;18.55;;;7.28;;
26989;SDS011;14537;47.788;11.858;2023-02-12T14:07:11;18.05;;;7.32;;
26989;SDS011;14537;47.788;11.858;2023-02-12T14:09:43;18.90;;;6.95;;
26989;SDS011;14537;47.788;11.858;2023-02-12T14:12:16;18.98;;;7.53;;
26989;SDS011;14537;47.788;11.858;2023-02-12T14:28:10;17.33;;;6.38;;
26989;SDS011;14537;47.788;11.858;2023-02-12T14:31:17;15.68;;;6.35;;
26989;SDS011;14537;47.788;11.858;2023-02-12T14:33:43;17.25;;;6.75;;
26989;SDS011;14537;47.788;11.858;2023-02-12T14:46:51;15.45;;;6.40;;
26989;SDS011;14537;47.788;11.858;2023-02-12T14:49:19;14.65;;;5.78;;
26989;SDS011;14537;47.788;11.858;2023-02-12T14:54:53;12.35;;;5.45;;
26989;SDS011;14537;47.788;11.858;2023-02-12T14:59:57;12.07;;;5.20;;
26989;SDS011;14537;47.788;11.858;2023-02-12T15:02:26;15.43;;;6.38;;
26989;SDS011;14537;47.788;11.858;2023-02-12T15:04:57;17.73;;;5.57;;
26989;SDS011;14537;47.788;11.858;2023-02-12T15:07:27;13.38;;;5.38;;
26989;SDS011;14537;47.788;11.858;2023-02-12T15:09:58;13.63;;;5.72;;
26989;SDS011;14537;47.788;11.858;2023-02-12T15:18:13;12.45;;;5.40;;
26989;SDS011;14537;47.788;11.858;2023-02-12T15:21:01;10.85;;;5.10;;
26989;SDS011;14537;47.788;11.858;2023-02-12T15:23:39;11.07;;;5.30;;
26989;SDS011;14537;47.788;11.858;2023-02-12T15:26:10;12.75;;;5.05;;
26989;SDS011;14537;47.788;11.858;2023-02-12T15:28:39;10.20;;;4.55;;
26989;SDS011;14537;47.788;11.858;2023-02-12T15:31:06;9.60;;;4.60;;
26989;SDS011;14537;47.788;11.858;2023-02-12T15:33:35;11.10;;;4.88;;
26989;SDS011;14537;47.788;11.858;2023-02-12T15:36:09;9.52;;;4.38;;
26989;SDS011;14537;47.788;11.858;2023-02-12T15:38:40;9.38;;;4.43;;
26989;SDS011;14537;47.788;11.858;2023-02-12T15:41:06;11.10;;;4.68;;
26989;SDS011;14537;47.788;11.858;2023-02-12T15:43:34;11.90;;;5.03;;
26989;SDS011;14537;47.788;11.858;2023-02-12T15:46:04;13.13;;;5.50;;
26989;SDS011;14537;47.788;11.858;2023-02-12T15:48:39;12.18;;;5.35;;
26989;SDS011;14537;47.788;11.858;2023-02-12T15:53:34;11.75;;;5.22;;
26989;SDS011;14537;47.788;11.858;2023-02-12T15:56:00;12.68;;;5.55;;
26989;SDS011;14537;47.788;11.858;2023-02-12T15:58:28;12.00;;;4.90;;
26989;SDS011;14537;47.788;11.858;2023-02-12T16:01:00;14.65;;;5.57;;
26989;SDS011;14537;47.788;11.858;2023-02-12T16:03:30;13.13;;;5.07;;
26989;SDS011;14537;47.788;11.858;2023-02-12T16:06:07;12.83;;;5.00;;
26989;SDS011;14537;47.788;11.858;2023-02-12T16:08:35;16.08;;;5.43;;
26989;SDS011;14537;47.788;11.858;2023-02-12T16:11:02;17.42;;;5.40;;
26989;SDS011;14537;47.788;11.858;2023-02-12T16:13:38;12.93;;;5.07;;
26989;SDS011;14537;47.788;11.858;2023-02-12T16:16:28;11.70;;;4.85;;
26989;SDS011;14537;47.788;11.858;2023-02-12T16:21:40;12.23;;;5.30;;
26989;SDS011;14537;47.788;11.858;2023-02-12T16:24:16;13.07;;;5.53;;
26989;SDS011;14537;47.788;11.858;2023-02-12T16:26:45;12.18;;;5.38;;
26989;SDS011;14537;47.788;11.858;2023-02-12T16:29:12;13.65;;;6.15;;
26989;SDS011;14537;47.788;11.858;2023-02-12T16:31:44;14.15;;;5.80;;
26989;SDS011;14537;47.788;11.858;2023-02-12T16:34:36;14.18;;;6.15;;
26989;SDS011;14537;47.788;11.858;2023-02-12T16:47:54;11.35;;;5.13;;
26989;SDS011;14537;47.788;11.858;2023-02-12T16:50:21;15.38;;;5.93;;
26989;SDS011;14537;47.788;11.858;2023-02-12T16:52:58;15.63;;;5.97;;
26989;SDS011;14537;47.788;11.858;2023-02-12T16:55:25;10.70;;;4.70;;
26989;SDS011;14537;47.788;11.858;2023-02-12T16:57:51;35.08;;;12.13;;
26989;SDS011;14537;47.788;11.858;2023-02-12T17:00:17;35.17;;;13.10;;
26989;SDS011;14537;47.788;11.858;2023-02-12T17:02:43;17.80;;;7.00;;
26989;SDS011;14537;47.788;11.858;2023-02-12T17:05:09;20.50;;;6.35;;
26989;SDS011;14537;47.788;11.858;2023-02-12T17:07:35;9.18;;;4.55;;
26989;SDS011;14537;47.788;11.858;2023-02-12T17:10:00;14.27;;;5.88;;
26989;SDS011;14537;47.788;11.858;2023-02-12T17:12:27;14.27;;;6.40;;
26989;SDS011;14537;47.788;11.858;2023-02-12T17:14:53;15.75;;;6.95;;
26989;SDS011;14537;47.788;11.858;2023-02-12T17:17:19;20.27;;;6.93;;
26989;SDS011;14537;47.788;11.858;2023-02-12T17:19:45;20.02;;;7.55;;
26989;SDS011;14537;47.788;11.858;2023-02-12T17:22:19;14.85;;;6.00;;
26989;SDS011;14537;47.788;11.858;2023-02-12T17:24:48;14.32;;;6.72;;
26989;SDS011;14537;47.788;11.858;2023-02-12T17:27:18;16.90;;;6.55;;
26989;SDS011;14537;47.788;11.858;2023-02-12T17:29:44;18.73;;;7.17;;
26989;SDS011;14537;47.788;11.858;2023-02-12T17:32:10;23.63;;;8.82;;
26989;SDS011;14537;47.788;11.858;2023-02-12T17:34:36;24.80;;;9.02;;
26989;SDS011;14537;47.788;11.858;2023-02-12T17:37:02;25.30;;;9.18;;
26989;SDS011;14537;47.788;11.858;2023-02-12T17:39:29;49.17;;;14.15;;
26989;SDS011;14537;47.788;11.858;2023-02-12T17:41:54;62.28;;;17.80;;
26989;SDS011;14537;47.788;11.858;2023-02-12T17:44:20;38.45;;;13.65;;
26989;SDS011;14537;47.788;11.858;2023-02-12T17:46:45;25.85;;;9.48;;
26989;SDS011;14537;47.788;11.858;2023-02-12T17:49:11;32.33;;;10.82;;
26989;SDS011;14537;47.788;11.858;2023-02-12T17:51:37;52.05;;;17.98;;
26989;SDS011;14537;47.788;11.858;2023-02-12T17:54:03;60.15;;;18.58;;
26989;SDS011;14537;47.788;11.858;2023-02-12T17:56:29;42.60;;;16.27;;
26989;SDS011;14537;47.788;11.858;2023-02-12T17:58:54;34.88;;;13.10;;
26989;SDS011;14537;47.788;11.858;2023-02-12T18:01:21;30.92;;;11.93;;
26989;SDS011;14537;47.788;11.858;2023-02-12T18:03:47;22.67;;;8.68;;
26989;SDS011;14537;47.788;11.858;2023-02-12T18:06:20;23.58;;;8.82;;